sensor_id;sensor_type;location;lat;lon;timestamp;P1;durP1;ratioP1;P2;durP2;ratioP2
19727;SDS011;10015;52.530;13.390;2023-01-19T05:18:23;22.83;;;8.70;;
19727;SDS011;10015;52.530;13.390;2023-01-19T05:20:49;19.80;;;8.33;;
19727;SDS011;10015;52.530;13.390;2023-01-19T05:23:15;21.97;;;9.20;;
19727;SDS011;10015;52.530;13.390;2023-01-19T05:25:41;22.83;;;8.37;;
19727;SDS011;10015;52.530;13.390;2023-01-19T05:28:07;17.77;;;7.60;;
19727;SDS011;10015;52.530;13.390;2023-01-19T05:30:33;17.57;;;8.20;;
19727;SDS011;10015;52.530;13.390;2023-01-19T05:32:59;15.77;;;7.80;;
19727;SDS011;10015;52.530;13.390;2023-01-19T05:35:25;16.90;;;7.73;;
19727;SDS011;10015;52.530;13.390;2023-01-19T05:37:51;19.10;;;8.57;;
19727;SDS011;10015;52.530;13.390;2023-01-19T05:40:17;18.77;;;8.17;;
19727;SDS011;10015;52.530;13.390;2023-01-19T05:42:43;16.83;;;7.63;;
19727;SDS011;10015;52.530;13.390;2023-01-19T05:45:09;18.83;;;8.57;;
19727;SDS011;10015;52.530;13.390;2023-01-19T05:47:37;21.30;;;9.03;;
19727;SDS011;10015;52.530;13.390;2023-01-19T05:50:04;20.37;;;8.70;;
19727;SDS011;10015;52.530;13.390;2023-01-19T05:52:30;19.33;;;7.90;;
19727;SDS011;10015;52.530;13.390;2023-01-19T05:54:56;15.40;;;8.00;;
19727;SDS011;10015;52.530;13.390;2023-01-19T05:57:22;21.83;;;9.00;;
19727;SDS011;10015;52.530;13.390;2023-01-19T05:59:48;16.93;;;8.30;;
19727;SDS011;10015;52.530;13.390;2023-01-19T06:02:14;22.10;;;8.67;;
19727;SDS011;10015;52.530;13.390;2023-01-19T06:04:40;18.67;;;8.20;;
19727;SDS011;10015;52.530;13.390;2023-01-19T06:07:06;17.77;;;8.90;;
19727;SDS011;10015;52.530;13.390;2023-01-19T06:09:32;18.60;;;8.67;;
19727;SDS011;10015;52.530;13.390;2023-01-19T06:11:58;18.27;;;8.23;;
19727;SDS011;10015;52.530;13.390;2023-01-19T06:14:24;20.93;;;8.87;;
19727;SDS011;10015;52.530;13.390;2023-01-19T06:16:51;18.97;;;8.47;;
19727;SDS011;10015;52.530;13.390;2023-01-19T06:19:17;14.17;;;7.73;;
19727;SDS011;10015;52.530;13.390;2023-01-19T06:21:43;19.10;;;8.27;;
19727;SDS011;10015;52.530;13.390;2023-01-19T06:24:14;19.40;;;8.30;;
19727;SDS011;10015;52.530;13.390;2023-01-19T06:26:40;21.00;;;8.17;;
19727;SDS011;10015;52.530;13.390;2023-01-19T06:29:09;19.40;;;9.07;;
19727;SDS011;10015;52.530;13.390;2023-01-19T06:31:36;20.17;;;7.77;;
19727;SDS011;10015;52.530;13.390;2023-01-19T06:34:02;22.13;;;8.00;;
19727;SDS011;10015;52.530;13.390;2023-01-19T06:36:28;17.87;;;8.03;;
19727;SDS011;10015;52.530;13.390;2023-01-19T06:38:58;17.17;;;7.90;;
19727;SDS011;10015;52.530;13.390;2023-01-19T06:41:27;15.50;;;7.57;;
19727;SDS011;10015;52.530;13.390;2023-01-19T06:43:54;17.90;;;8.40;;
19727;SDS011;10015;52.530;13.390;2023-01-19T06:46:20;19.43;;;8.17;;
19727;SDS011;10015;52.530;13.390;2023-01-19T06:48:46;17.00;;;7.70;;
19727;SDS011;10015;52.530;13.390;2023-01-19T06:51:12;18.10;;;8.00;;
19727;SDS011;10015;52.530;13.390;2023-01-19T06:53:38;19.80;;;8.13;;
19727;SDS011;10015;52.530;13.390;2023-01-19T06:56:04;19.97;;;7.97;;
19727;SDS011;10015;52.530;13.390;2023-01-19T06:58:30;17.50;;;7.87;;
19727;SDS011;10015;52.530;13.390;2023-01-19T07:01:05;20.30;;;8.43;;
19727;SDS011;10015;52.530;13.390;2023-01-19T07:03:32;19.80;;;8.33;;
19727;SDS011;10015;52.530;13.390;2023-01-19T07:05:59;14.80;;;7.63;;
19727;SDS011;10015;52.530;13.390;2023-01-19T07:08:31;16.37;;;8.03;;
19727;SDS011;10015;52.530;13.390;2023-01-19T07:11:08;19.50;;;8.40;;
19727;SDS011;10015;52.530;13.390;2023-01-19T07:13:35;16.67;;;7.60;;
19727;SDS011;10015;52.530;13.390;2023-01-19T07:16:06;19.07;;;8.10;;
19727;SDS011;10015;52.530;13.390;2023-01-19T07:18:34;16.93;;;7.77;;
19727;SDS011;10015;52.530;13.390;2023-01-19T07:21:01;17.63;;;7.93;;
19727;SDS011;10015;52.530;13.390;2023-01-19T07:23:27;20.40;;;8.40;;
19727;SDS011;10015;52.530;13.390;2023-01-19T07:25:56;19.73;;;7.93;;
19727;SDS011;10015;52.530;13.390;2023-01-19T07:28:23;20.97;;;8.13;;
19727;SDS011;10015;52.530;13.390;2023-01-19T07:30:50;18.10;;;8.30;;
19727;SDS011;10015;52.530;13.390;2023-01-19T07:33:17;18.17;;;7.97;;
19727;SDS011;10015;52.530;13.390;2023-01-19T07:35:46;17.03;;;8.17;;
19727;SDS011;10015;52.530;13.390;2023-01-19T07:38:14;16.93;;;7.27;;
19727;SDS011;10015;52.530;13.390;2023-01-19T07:40:40;18.00;;;7.93;;
19727;SDS011;10015;52.530;13.390;2023-01-19T07:43:06;21.17;;;8.37;;
19727;SDS011;10015;52.530;13.390;2023-01-19T07:45:33;20.47;;;8.43;;
19727;SDS011;10015;52.530;13.390;2023-01-19T07:48:02;17.00;;;8.07;;
19727;SDS011;10015;52.530;13.390;2023-01-19T07:50:28;19.23;;;8.17;;
19727;SDS011;10015;52.530;13.390;2023-01-19T07:52:55;17.97;;;7.60;;
19727;SDS011;10015;52.530;13.390;2023-01-19T07:55:21;17.00;;;7.57;;
19727;SDS011;10015;52.530;13.390;2023-01-19T07:57:51;14.90;;;7.63;;
19727;SDS011;10015;52.530;13.390;2023-01-19T08:00:17;16.63;;;8.17;;
19727;SDS011;10015;52.530;13.390;2023-01-19T08:02:46;19.20;;;7.47;;
19727;SDS011;10015;52.530;13.390;2023-01-19T08:05:15;16.60;;;7.60;;
19727;SDS011;10015;52.530;13.390;2023-01-19T08:07:42;18.30;;;8.43;;
19727;SDS011;10015;52.530;13.390;2023-01-19T08:10:10;16.80;;;7.63;;
19727;SDS011;10015;52.530;13.390;2023-01-19T08:12:39;19.37;;;7.77;;
19727;SDS011;10015;52.530;13.390;2023-01-19T08:15:08;14.47;;;7.27;;
19727;SDS011;10015;52.530;13.390;2023-01-19T08:17:34;16.77;;;7.37;;
19727;SDS011;10015;52.530;13.390;2023-01-19T08:20:01;15.17;;;7.07;;
19727;SDS011;10015;52.530;13.390;2023-01-19T08:22:27;17.00;;;7.07;;
19727;SDS011;10015;52.530;13.390;2023-01-19T08:24:53;16.23;;;7.33;;
19727;SDS011;10015;52.530;13.390;2023-01-19T08:27:20;11.07;;;6.57;;
19727;SDS011;10015;52.530;13.390;2023-01-19T08:29:46;12.37;;;6.87;;
19727;SDS011;10015;52.530;13.390;2023-01-19T08:32:13;13.53;;;6.73;;
19727;SDS011;10015;52.530;13.390;2023-01-19T08:34:38;12.43;;;6.27;;
19727;SDS011;10015;52.530;13.390;2023-01-19T08:37:04;12.20;;;6.67;;
19727;SDS011;10015;52.530;13.390;2023-01-19T08:39:30;16.40;;;6.90;;
19727;SDS011;10015;52.530;13.390;2023-01-19T08:41:56;18.03;;;6.67;;
19727;SDS011;10015;52.530;13.390;2023-01-19T08:44:25;14.50;;;6.37;;
19727;SDS011;10015;52.530;13.390;2023-01-19T08:46:51;12.20;;;5.97;;
19727;SDS011;10015;52.530;13.390;2023-01-19T08:49:18;16.37;;;6.90;;
19727;SDS011;10015;52.530;13.390;2023-01-19T08:51:44;13.93;;;6.63;;
19727;SDS011;10015;52.530;13.390;2023-01-19T08:54:11;14.93;;;6.70;;
19727;SDS011;10015;52.530;13.390;2023-01-19T08:56:38;13.40;;;6.47;;
19727;SDS011;10015;52.530;13.390;2023-01-19T08:59:04;12.63;;;6.00;;
19727;SDS011;10015;52.530;13.390;2023-01-19T09:01:30;13.20;;;5.80;;
19727;SDS011;10015;52.530;13.390;2023-01-19T09:03:56;14.77;;;6.20;;
19727;SDS011;10015;52.530;13.390;2023-01-19T09:06:22;14.03;;;5.70;;
19727;SDS011;10015;52.530;13.390;2023-01-19T09:08:49;13.77;;;6.50;;
19727;SDS011;10015;52.530;13.390;2023-01-19T09:11:15;12.13;;;5.60;;
19727;SDS011;10015;52.530;13.390;2023-01-19T09:13:41;16.70;;;6.60;;
19727;SDS011;10015;52.530;13.390;2023-01-19T09:16:08;15.60;;;7.00;;
19727;SDS011;10015;52.530;13.390;2023-01-19T09:18:36;14.13;;;6.27;;
19727;SDS011;10015;52.530;13.390;2023-01-19T09:21:02;14.03;;;6.00;;
19727;SDS011;10015;52.530;13.390;2023-01-19T09:23:29;12.27;;;6.20;;
19727;SDS011;10015;52.530;13.390;2023-01-19T09:25:55;13.63;;;6.23;;
19727;SDS011;10015;52.530;13.390;2023-01-19T09:28:23;12.70;;;5.93;;
19727;SDS011;10015;52.530;13.390;2023-01-19T09:30:50;11.53;;;5.90;;
19727;SDS011;10015;52.530;13.390;2023-01-19T09:33:16;11.33;;;5.23;;
19727;SDS011;10015;52.530;13.390;2023-01-19T09:35:44;12.20;;;5.40;;
19727;SDS011;10015;52.530;13.390;2023-01-19T09:38:11;14.93;;;6.17;;
19727;SDS011;10015;52.530;13.390;2023-01-19T09:40:54;10.43;;;5.60;;
19727;SDS011;10015;52.530;13.390;2023-01-19T09:46:12;10.77;;;5.33;;
19727;SDS011;10015;52.530;13.390;2023-01-19T09:49:01;10.47;;;5.40;;
19727;SDS011;10015;52.530;13.390;2023-01-19T09:51:40;14.77;;;5.90;;
19727;SDS011;10015;52.530;13.390;2023-01-19T09:56:44;11.87;;;5.77;;
19727;SDS011;10015;52.530;13.390;2023-01-19T09:59:22;11.20;;;5.47;;
19727;SDS011;10015;52.530;13.390;2023-01-19T10:04:39;10.43;;;5.73;;
19727;SDS011;10015;52.530;13.390;2023-01-19T10:10:38;10.13;;;5.40;;
19727;SDS011;10015;52.530;13.390;2023-01-19T10:18:35;13.87;;;5.50;;
19727;SDS011;10015;52.530;13.390;2023-01-19T10:26:28;17.47;;;6.27;;
19727;SDS011;10015;52.530;13.390;2023-01-19T10:32:02;11.77;;;6.03;;
19727;SDS011;10015;52.530;13.390;2023-01-19T10:34:47;10.50;;;5.77;;
19727;SDS011;10015;52.530;13.390;2023-01-19T10:40:18;11.67;;;5.40;;
19727;SDS011;10015;52.530;13.390;2023-01-19T10:42:53;10.00;;;5.33;;
19727;SDS011;10015;52.530;13.390;2023-01-19T10:45:22;11.50;;;5.67;;
19727;SDS011;10015;52.530;13.390;2023-01-19T10:47:50;10.40;;;5.33;;
19727;SDS011;10015;52.530;13.390;2023-01-19T10:50:28;9.77;;;5.23;;
19727;SDS011;10015;52.530;13.390;2023-01-19T10:52:57;9.67;;;5.47;;
19727;SDS011;10015;52.530;13.390;2023-01-19T10:57:50;12.80;;;6.27;;
19727;SDS011;10015;52.530;13.390;2023-01-19T11:00:28;13.57;;;5.80;;
19727;SDS011;10015;52.530;13.390;2023-01-19T11:02:58;9.50;;;5.47;;
19727;SDS011;10015;52.530;13.390;2023-01-19T11:05:25;13.13;;;6.27;;
19727;SDS011;10015;52.530;13.390;2023-01-19T11:07:56;12.57;;;5.53;;
19727;SDS011;10015;52.530;13.390;2023-01-19T11:10:23;10.73;;;5.83;;
19727;SDS011;10015;52.530;13.390;2023-01-19T11:15:32;15.87;;;6.20;;
19727;SDS011;10015;52.530;13.390;2023-01-19T11:18:01;13.10;;;5.43;;
19727;SDS011;10015;52.530;13.390;2023-01-19T11:20:33;15.80;;;6.73;;
19727;SDS011;10015;52.530;13.390;2023-01-19T11:23:24;14.53;;;7.00;;
19727;SDS011;10015;52.530;13.390;2023-01-19T11:25:54;11.07;;;5.30;;
19727;SDS011;10015;52.530;13.390;2023-01-19T11:28:33;11.67;;;5.73;;
19727;SDS011;10015;52.530;13.390;2023-01-19T11:38:50;11.17;;;5.80;;
19727;SDS011;10015;52.530;13.390;2023-01-19T11:41:20;12.17;;;6.27;;
19727;SDS011;10015;52.530;13.390;2023-01-19T11:43:57;11.37;;;5.53;;
19727;SDS011;10015;52.530;13.390;2023-01-19T11:46:29;11.57;;;6.13;;
19727;SDS011;10015;52.530;13.390;2023-01-19T11:49:01;10.27;;;5.60;;
19727;SDS011;10015;52.530;13.390;2023-01-19T11:51:32;13.23;;;6.37;;
19727;SDS011;10015;52.530;13.390;2023-01-19T11:54:19;11.47;;;5.60;;
19727;SDS011;10015;52.530;13.390;2023-01-19T11:56:49;10.93;;;5.53;;
19727;SDS011;10015;52.530;13.390;2023-01-19T11:59:18;10.83;;;5.77;;
19727;SDS011;10015;52.530;13.390;2023-01-19T12:01:48;11.20;;;6.10;;
19727;SDS011;10015;52.530;13.390;2023-01-19T12:04:43;14.83;;;6.37;;
19727;SDS011;10015;52.530;13.390;2023-01-19T12:07:09;12.30;;;6.13;;
19727;SDS011;10015;52.530;13.390;2023-01-19T12:09:48;11.47;;;5.80;;
19727;SDS011;10015;52.530;13.390;2023-01-19T12:12:29;12.90;;;6.17;;
19727;SDS011;10015;52.530;13.390;2023-01-19T12:15:01;14.37;;;6.90;;
19727;SDS011;10015;52.530;13.390;2023-01-19T12:17:38;14.60;;;6.60;;
19727;SDS011;10015;52.530;13.390;2023-01-19T12:20:25;14.80;;;6.13;;
19727;SDS011;10015;52.530;13.390;2023-01-19T12:23:02;10.80;;;5.33;;
19727;SDS011;10015;52.530;13.390;2023-01-19T12:28:26;12.10;;;5.83;;
19727;SDS011;10015;52.530;13.390;2023-01-19T12:30:56;11.93;;;6.60;;
19727;SDS011;10015;52.530;13.390;2023-01-19T12:36:02;15.70;;;6.47;;
19727;SDS011;10015;52.530;13.390;2023-01-19T12:38:33;13.40;;;7.10;;
19727;SDS011;10015;52.530;13.390;2023-01-19T12:43:47;14.80;;;6.40;;
19727;SDS011;10015;52.530;13.390;2023-01-19T12:46:33;14.57;;;6.73;;
19727;SDS011;10015;52.530;13.390;2023-01-19T12:49:03;12.30;;;6.00;;
19727;SDS011;10015;52.530;13.390;2023-01-19T12:51:52;11.47;;;5.57;;
19727;SDS011;10015;52.530;13.390;2023-01-19T12:54:41;12.17;;;5.77;;
19727;SDS011;10015;52.530;13.390;2023-01-19T12:57:20;10.53;;;5.17;;
19727;SDS011;10015;52.530;13.390;2023-01-19T13:04:29;10.67;;;5.97;;
19727;SDS011;10015;52.530;13.390;2023-01-19T13:18:00;12.63;;;6.73;;
19727;SDS011;10015;52.530;13.390;2023-01-19T13:20:40;16.80;;;7.27;;
19727;SDS011;10015;52.530;13.390;2023-01-19T13:23:14;14.97;;;7.67;;
19727;SDS011;10015;52.530;13.390;2023-01-19T13:25:45;14.03;;;6.57;;
19727;SDS011;10015;52.530;13.390;2023-01-19T13:28:15;12.87;;;7.13;;
19727;SDS011;10015;52.530;13.390;2023-01-19T13:30:48;14.43;;;7.27;;
19727;SDS011;10015;52.530;13.390;2023-01-19T13:33:20;15.13;;;7.70;;
19727;SDS011;10015;52.530;13.390;2023-01-19T13:35:58;13.57;;;7.27;;
19727;SDS011;10015;52.530;13.390;2023-01-19T13:38:24;16.67;;;7.50;;
19727;SDS011;10015;52.530;13.390;2023-01-19T13:40:52;15.47;;;7.20;;
19727;SDS011;10015;52.530;13.390;2023-01-19T13:43:23;14.53;;;7.30;;
19727;SDS011;10015;52.530;13.390;2023-01-19T13:48:51;17.33;;;8.07;;
19727;SDS011;10015;52.530;13.390;2023-01-19T13:51:21;14.60;;;7.33;;
19727;SDS011;10015;52.530;13.390;2023-01-19T13:53:57;14.97;;;7.40;;
19727;SDS011;10015;52.530;13.390;2023-01-19T13:56:28;14.90;;;7.43;;
19727;SDS011;10015;52.530;13.390;2023-01-19T13:58:58;14.27;;;7.33;;
19727;SDS011;10015;52.530;13.390;2023-01-19T14:01:27;15.27;;;7.97;;
19727;SDS011;10015;52.530;13.390;2023-01-19T14:03:54;15.27;;;7.60;;
19727;SDS011;10015;52.530;13.390;2023-01-19T14:06:39;16.63;;;7.50;;
19727;SDS011;10015;52.530;13.390;2023-01-19T14:12:05;14.30;;;6.70;;
19727;SDS011;10015;52.530;13.390;2023-01-19T14:14:34;14.17;;;8.23;;
19727;SDS011;10015;52.530;13.390;2023-01-19T14:17:01;13.27;;;7.43;;
19727;SDS011;10015;52.530;13.390;2023-01-19T14:19:28;17.30;;;8.20;;
19727;SDS011;10015;52.530;13.390;2023-01-19T14:21:58;18.20;;;7.83;;
19727;SDS011;10015;52.530;13.390;2023-01-19T14:24:25;18.27;;;8.07;;
19727;SDS011;10015;52.530;13.390;2023-01-19T14:29:45;15.60;;;7.97;;
19727;SDS011;10015;52.530;13.390;2023-01-19T14:32:15;18.20;;;8.20;;
19727;SDS011;10015;52.530;13.390;2023-01-19T14:37:34;16.97;;;8.03;;
19727;SDS011;10015;52.530;13.390;2023-01-19T14:42:43;18.03;;;8.20;;
19727;SDS011;10015;52.530;13.390;2023-01-19T14:45:18;16.73;;;8.43;;
19727;SDS011;10015;52.530;13.390;2023-01-19T14:47:56;16.07;;;7.60;;
19727;SDS011;10015;52.530;13.390;2023-01-19T14:50:34;20.63;;;7.67;;
19727;SDS011;10015;52.530;13.390;2023-01-19T14:53:06;24.13;;;8.87;;
19727;SDS011;10015;52.530;13.390;2023-01-19T14:55:45;16.47;;;8.57;;
19727;SDS011;10015;52.530;13.390;2023-01-19T14:58:24;19.23;;;9.07;;
19727;SDS011;10015;52.530;13.390;2023-01-19T15:00:52;16.33;;;7.47;;
19727;SDS011;10015;52.530;13.390;2023-01-19T15:03:21;15.17;;;7.60;;
19727;SDS011;10015;52.530;13.390;2023-01-19T15:05:48;17.37;;;8.43;;
19727;SDS011;10015;52.530;13.390;2023-01-19T15:08:35;15.50;;;7.87;;
19727;SDS011;10015;52.530;13.390;2023-01-19T15:11:09;17.10;;;8.40;;
19727;SDS011;10015;52.530;13.390;2023-01-19T15:13:42;18.77;;;7.97;;
19727;SDS011;10015;52.530;13.390;2023-01-19T15:16:09;19.50;;;8.70;;
19727;SDS011;10015;52.530;13.390;2023-01-19T15:18:35;18.43;;;9.30;;
19727;SDS011;10015;52.530;13.390;2023-01-19T15:21:01;17.57;;;8.57;;
19727;SDS011;10015;52.530;13.390;2023-01-19T15:23:31;17.63;;;9.47;;
19727;SDS011;10015;52.530;13.390;2023-01-19T15:25:58;16.43;;;7.60;;
19727;SDS011;10015;52.530;13.390;2023-01-19T15:28:31;15.20;;;8.40;;
19727;SDS011;10015;52.530;13.390;2023-01-19T15:30:58;16.97;;;8.83;;
19727;SDS011;10015;52.530;13.390;2023-01-19T15:33:26;17.57;;;8.63;;
19727;SDS011;10015;52.530;13.390;2023-01-19T15:35:56;15.97;;;8.40;;
19727;SDS011;10015;52.530;13.390;2023-01-19T15:38:23;18.53;;;8.50;;
19727;SDS011;10015;52.530;13.390;2023-01-19T15:40:50;22.63;;;8.73;;
19727;SDS011;10015;52.530;13.390;2023-01-19T15:43:17;16.47;;;7.50;;
19727;SDS011;10015;52.530;13.390;2023-01-19T15:45:45;18.10;;;8.87;;
19727;SDS011;10015;52.530;13.390;2023-01-19T15:48:15;17.13;;;8.60;;
19727;SDS011;10015;52.530;13.390;2023-01-19T15:50:42;17.80;;;8.37;;
19727;SDS011;10015;52.530;13.390;2023-01-19T15:53:17;18.03;;;8.70;;
19727;SDS011;10015;52.530;13.390;2023-01-19T15:55:47;18.90;;;9.00;;
19727;SDS011;10015;52.530;13.390;2023-01-19T15:58:14;17.00;;;8.40;;
19727;SDS011;10015;52.530;13.390;2023-01-19T16:00:40;19.40;;;9.00;;
19727;SDS011;10015;52.530;13.390;2023-01-19T16:03:09;18.13;;;9.13;;
19727;SDS011;10015;52.530;13.390;2023-01-19T16:05:35;15.47;;;8.30;;
19727;SDS011;10015;52.530;13.390;2023-01-19T16:08:01;18.83;;;8.80;;
19727;SDS011;10015;52.530;13.390;2023-01-19T16:10:28;17.07;;;8.30;;
19727;SDS011;10015;52.530;13.390;2023-01-19T16:12:54;16.27;;;8.03;;
19727;SDS011;10015;52.530;13.390;2023-01-19T16:15:20;17.57;;;8.27;;
19727;SDS011;10015;52.530;13.390;2023-01-19T16:17:47;19.47;;;8.87;;
19727;SDS011;10015;52.530;13.390;2023-01-19T16:20:13;16.70;;;8.00;;
19727;SDS011;10015;52.530;13.390;2023-01-19T16:22:39;19.40;;;8.67;;
19727;SDS011;10015;52.530;13.390;2023-01-19T16:25:05;18.43;;;8.30;;
19727;SDS011;10015;52.530;13.390;2023-01-19T16:27:32;20.63;;;8.70;;
19727;SDS011;10015;52.530;13.390;2023-01-19T16:29:58;19.70;;;8.67;;
19727;SDS011;10015;52.530;13.390;2023-01-19T16:32:30;24.03;;;8.80;;
19727;SDS011;10015;52.530;13.390;2023-01-19T16:34:57;27.20;;;11.67;;
19727;SDS011;10015;52.530;13.390;2023-01-19T16:37:23;19.37;;;8.90;;
19727;SDS011;10015;52.530;13.390;2023-01-19T16:39:49;17.07;;;8.63;;
19727;SDS011;10015;52.530;13.390;2023-01-19T16:42:15;15.50;;;8.03;;
19727;SDS011;10015;52.530;13.390;2023-01-19T16:44:42;13.97;;;7.57;;
19727;SDS011;10015;52.530;13.390;2023-01-19T16:47:08;16.50;;;7.80;;
19727;SDS011;10015;52.530;13.390;2023-01-19T16:49:34;17.13;;;8.40;;
19727;SDS011;10015;52.530;13.390;2023-01-19T16:52:10;14.30;;;7.90;;
19727;SDS011;10015;52.530;13.390;2023-01-19T16:54:36;20.07;;;8.43;;
19727;SDS011;10015;52.530;13.390;2023-01-19T16:57:04;24.27;;;9.23;;
19727;SDS011;10015;52.530;13.390;2023-01-19T16:59:31;19.33;;;8.87;;
19727;SDS011;10015;52.530;13.390;2023-01-19T17:01:57;20.00;;;9.90;;
19727;SDS011;10015;52.530;13.390;2023-01-19T17:04:23;16.40;;;8.67;;
19727;SDS011;10015;52.530;13.390;2023-01-19T17:06:49;14.90;;;7.63;;
19727;SDS011;10015;52.530;13.390;2023-01-19T17:09:15;17.57;;;7.93;;
19727;SDS011;10015;52.530;13.390;2023-01-19T17:11:42;18.53;;;8.43;;
19727;SDS011;10015;52.530;13.390;2023-01-19T17:14:12;17.10;;;8.70;;
19727;SDS011;10015;52.530;13.390;2023-01-19T17:16:40;15.77;;;8.67;;
19727;SDS011;10015;52.530;13.390;2023-01-19T17:19:07;16.47;;;8.47;;
19727;SDS011;10015;52.530;13.390;2023-01-19T17:21:37;17.20;;;7.47;;
19727;SDS011;10015;52.530;13.390;2023-01-19T17:24:03;17.60;;;8.07;;
19727;SDS011;10015;52.530;13.390;2023-01-19T17:26:29;15.83;;;7.50;;
19727;SDS011;10015;52.530;13.390;2023-01-19T17:28:59;15.43;;;8.00;;
19727;SDS011;10015;52.530;13.390;2023-01-19T17:31:32;14.97;;;7.53;;
19727;SDS011;10015;52.530;13.390;2023-01-19T17:33:59;19.73;;;8.53;;
19727;SDS011;10015;52.530;13.390;2023-01-19T17:36:29;19.33;;;8.27;;
19727;SDS011;10015;52.530;13.390;2023-01-19T17:38:59;16.67;;;7.80;;
19727;SDS011;10015;52.530;13.390;2023-01-19T17:41:36;14.17;;;7.53;;
19727;SDS011;10015;52.530;13.390;2023-01-19T17:44:11;16.87;;;8.23;;
19727;SDS011;10015;52.530;13.390;2023-01-19T17:46:37;19.90;;;8.17;;
19727;SDS011;10015;52.530;13.390;2023-01-19T17:49:04;14.80;;;7.33;;
19727;SDS011;10015;52.530;13.390;2023-01-19T17:51:39;19.37;;;9.07;;
19727;SDS011;10015;52.530;13.390;2023-01-19T17:54:08;18.53;;;8.43;;
19727;SDS011;10015;52.530;13.390;2023-01-19T17:56:35;14.83;;;7.90;;
19727;SDS011;10015;52.530;13.390;2023-01-19T17:59:03;17.80;;;8.03;;
19727;SDS011;10015;52.530;13.390;2023-01-19T18:01:32;17.30;;;8.67;;
19727;SDS011;10015;52.530;13.390;2023-01-19T18:04:02;19.20;;;8.77;;
19727;SDS011;10015;52.530;13.390;2023-01-19T18:06:33;20.27;;;8.73;;
19727;SDS011;10015;52.530;13.390;2023-01-19T18:09:00;17.63;;;8.10;;
19727;SDS011;10015;52.530;13.390;2023-01-19T18:11:26;17.63;;;8.47;;
19727;SDS011;10015;52.530;13.390;2023-01-19T18:14:02;15.47;;;8.33;;
19727;SDS011;10015;52.530;13.390;2023-01-19T18:16:28;16.40;;;7.83;;
19727;SDS011;10015;52.530;13.390;2023-01-19T18:18:58;18.73;;;8.07;;
19727;SDS011;10015;52.530;13.390;2023-01-19T18:21:28;16.07;;;8.40;;
19727;SDS011;10015;52.530;13.390;2023-01-19T18:24:01;17.20;;;7.93;;
19727;SDS011;10015;52.530;13.390;2023-01-19T18:26:34;17.70;;;7.87;;
19727;SDS011;10015;52.530;13.390;2023-01-19T18:29:01;18.90;;;8.27;;
19727;SDS011;10015;52.530;13.390;2023-01-19T18:31:28;20.17;;;8.73;;
19727;SDS011;10015;52.530;13.390;2023-01-19T18:33:54;16.10;;;8.10;;
19727;SDS011;10015;52.530;13.390;2023-01-19T18:36:21;17.33;;;7.43;;
19727;SDS011;10015;52.530;13.390;2023-01-19T18:38:47;16.27;;;7.90;;
19727;SDS011;10015;52.530;13.390;2023-01-19T18:41:17;20.17;;;8.13;;
19727;SDS011;10015;52.530;13.390;2023-01-19T18:43:45;18.37;;;7.90;;
19727;SDS011;10015;52.530;13.390;2023-01-19T18:46:12;14.97;;;7.90;;
19727;SDS011;10015;52.530;13.390;2023-01-19T18:48:38;17.80;;;8.13;;
19727;SDS011;10015;52.530;13.390;2023-01-19T18:51:05;15.63;;;7.57;;
19727;SDS011;10015;52.530;13.390;2023-01-19T18:53:32;21.73;;;8.57;;
19727;SDS011;10015;52.530;13.390;2023-01-19T18:56:01;16.93;;;7.77;;
19727;SDS011;10015;52.530;13.390;2023-01-19T18:58:28;15.90;;;7.60;;
19727;SDS011;10015;52.530;13.390;2023-01-19T19:00:56;18.60;;;8.93;;
19727;SDS011;10015;52.530;13.390;2023-01-19T19:03:23;17.20;;;7.93;;
19727;SDS011;10015;52.530;13.390;2023-01-19T19:05:50;16.17;;;7.83;;
19727;SDS011;10015;52.530;13.390;2023-01-19T19:08:16;16.27;;;8.50;;
19727;SDS011;10015;52.530;13.390;2023-01-19T19:10:42;20.23;;;8.27;;
19727;SDS011;10015;52.530;13.390;2023-01-19T19:13:12;15.53;;;8.63;;
19727;SDS011;10015;52.530;13.390;2023-01-19T19:15:40;18.03;;;8.07;;
19727;SDS011;10015;52.530;13.390;2023-01-19T19:18:06;16.17;;;8.23;;
19727;SDS011;10015;52.530;13.390;2023-01-19T19:20:37;16.60;;;7.50;;
19727;SDS011;10015;52.530;13.390;2023-01-19T19:23:04;19.97;;;8.83;;
19727;SDS011;10015;52.530;13.390;2023-01-19T19:25:30;14.00;;;7.73;;
19727;SDS011;10015;52.530;13.390;2023-01-19T19:27:56;11.83;;;7.33;;
19727;SDS011;10015;52.530;13.390;2023-01-19T19:30:22;14.87;;;8.00;;
19727;SDS011;10015;52.530;13.390;2023-01-19T19:32:55;15.07;;;8.03;;
19727;SDS011;10015;52.530;13.390;2023-01-19T19:35:24;17.53;;;7.50;;
19727;SDS011;10015;52.530;13.390;2023-01-19T19:37:50;13.57;;;7.30;;
19727;SDS011;10015;52.530;13.390;2023-01-19T19:40:24;13.00;;;7.37;;
19727;SDS011;10015;52.530;13.390;2023-01-19T19:42:51;14.53;;;7.57;;
19727;SDS011;10015;52.530;13.390;2023-01-19T19:45:17;14.57;;;7.17;;
19727;SDS011;10015;52.530;13.390;2023-01-19T19:47:43;14.23;;;7.40;;
19727;SDS011;10015;52.530;13.390;2023-01-19T19:50:10;14.37;;;7.13;;
19727;SDS011;10015;52.530;13.390;2023-01-19T19:52:37;14.70;;;7.37;;
19727;SDS011;10015;52.530;13.390;2023-01-19T19:55:05;15.40;;;7.43;;
19727;SDS011;10015;52.530;13.390;2023-01-19T19:57:32;20.83;;;8.60;;
19727;SDS011;10015;52.530;13.390;2023-01-19T19:59:58;18.53;;;7.60;;
19727;SDS011;10015;52.530;13.390;2023-01-19T20:02:24;17.77;;;8.40;;
19727;SDS011;10015;52.530;13.390;2023-01-19T20:04:50;15.97;;;7.70;;
19727;SDS011;10015;52.530;13.390;2023-01-19T20:07:17;14.70;;;8.33;;
19727;SDS011;10015;52.530;13.390;2023-01-19T20:09:43;17.93;;;7.70;;
19727;SDS011;10015;52.530;13.390;2023-01-19T20:12:09;16.77;;;8.57;;
19727;SDS011;10015;52.530;13.390;2023-01-19T20:14:35;17.60;;;8.17;;
19727;SDS011;10015;52.530;13.390;2023-01-19T20:17:02;17.73;;;7.37;;
19727;SDS011;10015;52.530;13.390;2023-01-19T20:19:30;15.97;;;8.37;;
19727;SDS011;10015;52.530;13.390;2023-01-19T20:21:56;15.03;;;7.70;;
19727;SDS011;10015;52.530;13.390;2023-01-19T20:24:22;16.87;;;8.00;;
19727;SDS011;10015;52.530;13.390;2023-01-19T20:26:50;15.70;;;7.93;;
19727;SDS011;10015;52.530;13.390;2023-01-19T20:29:17;15.67;;;7.70;;
19727;SDS011;10015;52.530;13.390;2023-01-19T20:31:49;15.60;;;7.53;;
19727;SDS011;10015;52.530;13.390;2023-01-19T20:34:21;16.60;;;8.47;;
19727;SDS011;10015;52.530;13.390;2023-01-19T20:36:52;16.10;;;7.87;;
19727;SDS011;10015;52.530;13.390;2023-01-19T20:39:32;18.37;;;8.50;;
19727;SDS011;10015;52.530;13.390;2023-01-19T20:42:04;16.60;;;7.47;;
19727;SDS011;10015;52.530;13.390;2023-01-19T20:44:39;15.23;;;7.40;;
19727;SDS011;10015;52.530;13.390;2023-01-19T20:47:05;15.77;;;7.93;;
19727;SDS011;10015;52.530;13.390;2023-01-19T20:49:34;14.03;;;7.00;;
19727;SDS011;10015;52.530;13.390;2023-01-19T20:52:01;17.77;;;8.03;;
19727;SDS011;10015;52.530;13.390;2023-01-19T20:54:27;20.07;;;8.63;;
19727;SDS011;10015;52.530;13.390;2023-01-19T20:56:55;14.53;;;7.60;;
19727;SDS011;10015;52.530;13.390;2023-01-19T20:59:22;18.37;;;8.90;;
19727;SDS011;10015;52.530;13.390;2023-01-19T21:01:48;15.77;;;7.90;;
19727;SDS011;10015;52.530;13.390;2023-01-19T21:04:14;14.40;;;7.40;;
19727;SDS011;10015;52.530;13.390;2023-01-19T21:06:41;14.37;;;7.60;;
19727;SDS011;10015;52.530;13.390;2023-01-19T21:09:08;18.63;;;8.17;;